Delta Pioneer — SYIO — position and weather

sailwx.info

Track history (hours):
 
Tides and Currents Weather Stations Pressure Air Temp Water Temp Dewpoint Dewpoint Depression Visibility Wind Speed Wind Dir Waves Ship Positions

Delta Pioneer

Last reported at 2014-Dec-17 14:32 UTC. Time now 2014-Dec-20 00:53 UTC.
Position N 55°37' E 015°34'.

Length 249 m; draft 6.8 m.

Type: Tanker. MMSI: 240244000.

Date/timePositionNaut miles runAvg speedWind from/ knotsBaromVisibWave heightAir tempDewpointWater temp
2014-Dec-17 14:32N 55°37' E 015°34'5 5.4
2014-Dec-17 13:33N 55°36' E 015°25'6 5.7
2014-Dec-17 12:33N 55°33' E 015°16'6 5.7
2014-Dec-17 11:33N 55°31' E 015°07'6 5.8
2014-Dec-17 10:33N 55°28' E 014°58'6 6.1
2014-Dec-17 09:33N 55°26' E 014°48'9 8.7
2014-Dec-17 08:33N 55°20' E 014°36'9 8.7
2014-Dec-17 07:33N 55°14' E 014°25'9 9.4
2014-Dec-17 06:34N 55°10' E 014°11'1111.0
2014-Dec-17 05:33N 55°11' E 013°51'1010.2
2014-Dec-17 04:33N 55°12' E 013°34'13 9.3
2014-Dec-17 03:06N 55°13' E 013°10'5 8.8
2014-Dec-17 02:33N 55°13' E 013°02'9 8.7
2014-Dec-17 01:33N 55°16' E 012°47'6 6.1
2014-Dec-17 00:33N 55°19' E 012°38'7 7.0
2014-Dec-16 23:33N 55°26' E 012°40'7 6.5
2014-Dec-16 22:33N 55°31' E 012°45'8 7.8
2014-Dec-16 21:33N 55°37' E 012°54'1212.5
2014-Dec-16 20:33N 55°49' E 012°46'1515.0
2014-Dec-16 19:34N 56°03' E 012°38'9 8.9
2014-Dec-16 18:33N 56°09' E 012°26'5 5.4
2014-Dec-16 17:33N 56°12' E 012°18'6 5.3
2014-Dec-16 16:26N 56°15' E 012°09'5 5.4
2014-Dec-16 15:33N 56°18' E 012°02'14 4.2
2014-Dec-16 12:08N 56°32' E 011°57'4 6.2
2014-Dec-16 11:33N 56°35' E 011°56'26 6.5
2014-Dec-16 07:34N 57°00' E 011°42'4 3.6
2014-Dec-16 06:34N 57°04' E 011°40'3 3.3
2014-Dec-16 05:31N 57°07' E 011°38'4 4.0
2014-Dec-16 04:32N 57°11' E 011°35'4 4.2
2014-Dec-16 03:32N 57°15' E 011°33'4 4.5
2014-Dec-16 02:33N 57°19' E 011°30'5 5.3
2014-Dec-16 01:33N 57°24' E 011°27'5 5.1
2014-Dec-16 00:31N 57°28' E 011°22'5 5.6
2014-Dec-15 23:33N 57°32' E 011°15'6 6.1
2014-Dec-15 22:33N 57°36' E 011°06'6 5.8
2014-Dec-15 21:34N 57°40' E 010°59'5 5.2
2014-Dec-15 20:33N 57°44' E 010°52'6 5.9
2014-Dec-15 19:33N 57°47' E 010°43'9 8.7
2014-Dec-15 18:33N 57°47' E 010°26'78 6.8
2014-Dec-15 07:03N 57°12' E 008°17'4 5.6
2014-Dec-15 06:21N 57°08' E 008°13'12 5.8
2014-Dec-15 04:19N 56°59' E 007°59'5 5.9
2014-Dec-15 03:33N 56°55' E 007°54'6 6.1
2014-Dec-15 02:33N 56°50' E 007°48'6 6.0
2014-Dec-15 01:33N 56°45' E 007°42'6 5.8
2014-Dec-15 00:32N 56°40' E 007°36'6 6.2
2014-Dec-14 23:33N 56°35' E 007°30'6 6.2
2014-Dec-14 22:30N 56°30' E 007°24'68 7.3
2014-Dec-14 13:09N 55°31' E 006°24'15 5.0
2014-Dec-14 10:05N 55°17' E 006°11'4 5.2
2014-Dec-14 09:14N 55°14' E 006°07'58 6.7
2014-Dec-14 00:33N 54°22' E 005°18'7 7.5
2014-Dec-13 23:33N 54°17' E 005°09'7 7.2
2014-Dec-13 22:33N 54°12' E 004°60'7 7.0
2014-Dec-13 21:33N 54°07' E 004°52'7 6.5
2014-Dec-13 20:33N 54°01' E 004°49'7 7.0
2014-Dec-13 19:32N 53°57' E 004°39'43 5.9
2014-Dec-13 12:11N 53°28' E 003°44'2 2.7
2014-Dec-13 11:32N 53°27' E 003°43'77 4.0
2014-Dec-12 16:07N 52°26' E 002°23'5 0.9
2014-Dec-12 10:30N 52°24' E 002°15'5 5.2
2014-Dec-12 09:30N 52°27' E 002°22'49 4.5
2014-Dec-11 22:33N 52°03' E 003°32'5 5.0
2014-Dec-11 21:33N 52°03' E 003°40'5 4.7
2014-Dec-11 20:33N 52°03' E 003°48'5 5.0
2014-Dec-11 19:34N 52°01' E 003°56'8 7.9
2014-Dec-11 18:33N 51°58' E 004°07'8 8.4
2014-Dec-11 17:33N 51°54' E 004°18'1 0.8
2014-Dec-11 16:32N 51°53' E 004°17'0 0.0
2014-Dec-11 15:32N 51°53' E 004°17'0 0.0
2014-Dec-11 14:31N 51°53' E 004°17'0 0.0
2014-Dec-11 13:31N 51°53' E 004°17'0 0.0
2014-Dec-11 12:31N 51°53' E 004°17'0 0.0
2014-Dec-11 11:31N 51°53' E 004°17'0 0.0
2014-Dec-11 10:31N 51°53' E 004°17'0 0.0
2014-Dec-11 09:25N 51°53' E 004°17'0 0.0
2014-Dec-11 08:31N 51°53' E 004°17'0 0.0
2014-Dec-11 07:31N 51°53' E 004°17'0 0.0
2014-Dec-11 06:31N 51°53' E 004°17'0 0.0
2014-Dec-11 05:31N 51°53' E 004°17'0 0.0
2014-Dec-11 04:31N 51°53' E 004°17'0 0.0
2014-Dec-11 03:31N 51°53' E 004°17'0 0.0
2014-Dec-11 02:25N 51°53' E 004°17'0 0.0
2014-Dec-11 01:31N 51°53' E 004°17'0 0.0
2014-Dec-11 00:31N 51°53' E 004°17'0 0.0
2014-Dec-10 23:31N 51°53' E 004°17'0 0.0
2014-Dec-10 22:31N 51°53' E 004°17'0 0.0
2014-Dec-10 21:31N 51°53' E 004°17'0 0.0
2014-Dec-10 20:31N 51°53' E 004°17'0 0.0
2014-Dec-10 19:31N 51°53' E 004°17'0 0.0
2014-Dec-10 18:31N 51°53' E 004°17'0 0.0
2014-Dec-10 17:28N 51°53' E 004°17'0 0.0
2014-Dec-10 16:31N 51°53' E 004°17'0 0.0
2014-Dec-10 15:28N 51°53' E 004°17'0 0.0
2014-Dec-10 14:31N 51°53' E 004°17'0 0.0
2014-Dec-10 13:31N 51°53' E 004°17'0 0.0
2014-Dec-10 12:31N 51°53' E 004°17'0 0.0
2014-Dec-10 11:28N 51°53' E 004°17'0 0.0
2014-Dec-10 10:31N 51°53' E 004°17'0 0.0
2014-Dec-10 09:31N 51°53' E 004°17'0 0.0
2014-Dec-10 08:31N 51°53' E 004°17'0 0.0
2014-Dec-10 07:31N 51°53' E 004°17'0 0.0
2014-Dec-10 06:31N 51°53' E 004°17'0 0.0
2014-Dec-10 05:31N 51°53' E 004°17'0 0.0
2014-Dec-10 04:31N 51°53' E 004°17'0 0.0
2014-Dec-10 03:28N 51°53' E 004°17'0 0.0
2014-Dec-10 02:28N 51°53' E 004°17'0 0.0
2014-Dec-10 01:31N 51°53' E 004°17'0 0.0
2014-Dec-10 00:31N 51°53' E 004°17'0 0.0
2014-Dec-09 23:31N 51°53' E 004°17'0 0.0
2014-Dec-09 22:31N 51°53' E 004°17'0 0.0
2014-Dec-09 21:28N 51°53' E 004°17'0 0.0
2014-Dec-09 20:31N 51°53' E 004°17'0 0.0
2014-Dec-09 19:31N 51°53' E 004°17'0 0.0
2014-Dec-09 18:31N 51°53' E 004°17'0 0.0
2014-Dec-09 17:31N 51°53' E 004°17'0 0.0
2014-Dec-09 16:23N 51°53' E 004°17'0 0.0
2014-Dec-09 15:31N 51°53' E 004°17'0 0.0
2014-Dec-09 14:33N 51°53' E 004°17'0 0.0
2014-Dec-09 13:25N 51°53' E 004°17'0 0.0
2014-Dec-09 12:25N 51°53' E 004°17'0 0.0
2014-Dec-09 11:29N 51°53' E 004°17'0 0.0
2014-Dec-09 10:31N 51°53' E 004°17'0 0.0
2014-Dec-09 09:31N 51°53' E 004°17'0 0.0
2014-Dec-09 08:31N 51°53' E 004°17'0 0.0
2014-Dec-09 07:31N 51°53' E 004°17'0 0.0
2014-Dec-09 06:31N 51°53' E 004°17'0 0.0
2014-Dec-09 05:33N 51°53' E 004°17'1 0.5
2014-Dec-09 04:34N 51°54' E 004°17'9 8.7
2014-Dec-09 03:34N 51°59' E 004°06'9 8.5
2014-Dec-09 02:33N 52°01' E 003°52'6 5.7
2014-Dec-09 01:33N 51°59' E 003°44'6 6.0
2014-Dec-09 00:32N 51°57' E 003°34'6 5.8
2014-Dec-08 23:30N 51°55' E 003°25'  
Track history (hours):
 
Tides and Currents Weather Stations Pressure Air Temp Water Temp Dewpoint Dewpoint Depression Visibility Wind Speed Wind Dir Waves Ship Positions

Delta Pioneer

Last reported at 2014-Dec-17 14:32 UTC. Time now 2014-Dec-20 00:53 UTC.
Position N 55°37' E 015°34'.

Length 249 m; draft 6.8 m.

Type: Tanker. MMSI: 240244000.

Date/timePositionNaut miles runAvg speedWind from/ knotsBaromVisibWave heightAir tempDewpointWater temp
2014-Dec-17 14:32N 55°37' E 015°34'5 5.4
2014-Dec-17 13:33N 55°36' E 015°25'6 5.7
2014-Dec-17 12:33N 55°33' E 015°16'6 5.7
2014-Dec-17 11:33N 55°31' E 015°07'6 5.8
2014-Dec-17 10:33N 55°28' E 014°58'6 6.1
2014-Dec-17 09:33N 55°26' E 014°48'9 8.7
2014-Dec-17 08:33N 55°20' E 014°36'9 8.7
2014-Dec-17 07:33N 55°14' E 014°25'9 9.4
2014-Dec-17 06:34N 55°10' E 014°11'1111.0
2014-Dec-17 05:33N 55°11' E 013°51'1010.2
2014-Dec-17 04:33N 55°12' E 013°34'13 9.3
2014-Dec-17 03:06N 55°13' E 013°10'5 8.8
2014-Dec-17 02:33N 55°13' E 013°02'9 8.7
2014-Dec-17 01:33N 55°16' E 012°47'6 6.1
2014-Dec-17 00:33N 55°19' E 012°38'7 7.0
2014-Dec-16 23:33N 55°26' E 012°40'7 6.5
2014-Dec-16 22:33N 55°31' E 012°45'8 7.8
2014-Dec-16 21:33N 55°37' E 012°54'1212.5
2014-Dec-16 20:33N 55°49' E 012°46'1515.0
2014-Dec-16 19:34N 56°03' E 012°38'9 8.9
2014-Dec-16 18:33N 56°09' E 012°26'5 5.4
2014-Dec-16 17:33N 56°12' E 012°18'6 5.3
2014-Dec-16 16:26N 56°15' E 012°09'5 5.4
2014-Dec-16 15:33N 56°18' E 012°02'14 4.2
2014-Dec-16 12:08N 56°32' E 011°57'4 6.2
2014-Dec-16 11:33N 56°35' E 011°56'26 6.5
2014-Dec-16 07:34N 57°00' E 011°42'4 3.6
2014-Dec-16 06:34N 57°04' E 011°40'3 3.3
2014-Dec-16 05:31N 57°07' E 011°38'4 4.0
2014-Dec-16 04:32N 57°11' E 011°35'4 4.2
2014-Dec-16 03:32N 57°15' E 011°33'4 4.5
2014-Dec-16 02:33N 57°19' E 011°30'5 5.3
2014-Dec-16 01:33N 57°24' E 011°27'5 5.1
2014-Dec-16 00:31N 57°28' E 011°22'5 5.6
2014-Dec-15 23:33N 57°32' E 011°15'6 6.1
2014-Dec-15 22:33N 57°36' E 011°06'6 5.8
2014-Dec-15 21:34N 57°40' E 010°59'5 5.2
2014-Dec-15 20:33N 57°44' E 010°52'6 5.9
2014-Dec-15 19:33N 57°47' E 010°43'9 8.7
2014-Dec-15 18:33N 57°47' E 010°26'78 6.8
2014-Dec-15 07:03N 57°12' E 008°17'4 5.6
2014-Dec-15 06:21N 57°08' E 008°13'12 5.8
2014-Dec-15 04:19N 56°59' E 007°59'5 5.9
2014-Dec-15 03:33N 56°55' E 007°54'6 6.1
2014-Dec-15 02:33N 56°50' E 007°48'6 6.0
2014-Dec-15 01:33N 56°45' E 007°42'6 5.8
2014-Dec-15 00:32N 56°40' E 007°36'6 6.2
2014-Dec-14 23:33N 56°35' E 007°30'6 6.2
2014-Dec-14 22:30N 56°30' E 007°24'68 7.3
2014-Dec-14 13:09N 55°31' E 006°24'15 5.0
2014-Dec-14 10:05N 55°17' E 006°11'4 5.2
2014-Dec-14 09:14N 55°14' E 006°07'58 6.7
2014-Dec-14 00:33N 54°22' E 005°18'7 7.5
2014-Dec-13 23:33N 54°17' E 005°09'7 7.2
2014-Dec-13 22:33N 54°12' E 004°60'7 7.0
2014-Dec-13 21:33N 54°07' E 004°52'7 6.5
2014-Dec-13 20:33N 54°01' E 004°49'7 7.0
2014-Dec-13 19:32N 53°57' E 004°39'43 5.9
2014-Dec-13 12:11N 53°28' E 003°44'2 2.7
2014-Dec-13 11:32N 53°27' E 003°43'77 4.0
2014-Dec-12 16:07N 52°26' E 002°23'5 0.9
2014-Dec-12 10:30N 52°24' E 002°15'5 5.2
2014-Dec-12 09:30N 52°27' E 002°22'49 4.5
2014-Dec-11 22:33N 52°03' E 003°32'5 5.0
2014-Dec-11 21:33N 52°03' E 003°40'5 4.7
2014-Dec-11 20:33N 52°03' E 003°48'5 5.0
2014-Dec-11 19:34N 52°01' E 003°56'8 7.9
2014-Dec-11 18:33N 51°58' E 004°07'8 8.4
2014-Dec-11 17:33N 51°54' E 004°18'1 0.8
2014-Dec-11 16:32N 51°53' E 004°17'0 0.0
2014-Dec-11 15:32N 51°53' E 004°17'0 0.0
2014-Dec-11 14:31N 51°53' E 004°17'0 0.0
2014-Dec-11 13:31N 51°53' E 004°17'0 0.0
2014-Dec-11 12:31N 51°53' E 004°17'0 0.0
2014-Dec-11 11:31N 51°53' E 004°17'0 0.0
2014-Dec-11 10:31N 51°53' E 004°17'0 0.0
2014-Dec-11 09:25N 51°53' E 004°17'0 0.0
2014-Dec-11 08:31N 51°53' E 004°17'0 0.0
2014-Dec-11 07:31N 51°53' E 004°17'0 0.0
2014-Dec-11 06:31N 51°53' E 004°17'0 0.0
2014-Dec-11 05:31N 51°53' E 004°17'0 0.0
2014-Dec-11 04:31N 51°53' E 004°17'0 0.0
2014-Dec-11 03:31N 51°53' E 004°17'0 0.0
2014-Dec-11 02:25N 51°53' E 004°17'0 0.0
2014-Dec-11 01:31N 51°53' E 004°17'0 0.0
2014-Dec-11 00:31N 51°53' E 004°17'0 0.0
2014-Dec-10 23:31N 51°53' E 004°17'0 0.0
2014-Dec-10 22:31N 51°53' E 004°17'0 0.0
2014-Dec-10 21:31N 51°53' E 004°17'0 0.0
2014-Dec-10 20:31N 51°53' E 004°17'0 0.0
2014-Dec-10 19:31N 51°53' E 004°17'0 0.0
2014-Dec-10 18:31N 51°53' E 004°17'0 0.0
2014-Dec-10 17:28N 51°53' E 004°17'0 0.0
2014-Dec-10 16:31N 51°53' E 004°17'0 0.0
2014-Dec-10 15:28N 51°53' E 004°17'0 0.0
2014-Dec-10 14:31N 51°53' E 004°17'0 0.0
2014-Dec-10 13:31N 51°53' E 004°17'0 0.0
2014-Dec-10 12:31N 51°53' E 004°17'0 0.0
2014-Dec-10 11:28N 51°53' E 004°17'0 0.0
2014-Dec-10 10:31N 51°53' E 004°17'0 0.0
2014-Dec-10 09:31N 51°53' E 004°17'0 0.0
2014-Dec-10 08:31N 51°53' E 004°17'0 0.0
2014-Dec-10 07:31N 51°53' E 004°17'0 0.0
2014-Dec-10 06:31N 51°53' E 004°17'0 0.0
2014-Dec-10 05:31N 51°53' E 004°17'0 0.0
2014-Dec-10 04:31N 51°53' E 004°17'0 0.0
2014-Dec-10 03:28N 51°53' E 004°17'0 0.0
2014-Dec-10 02:28N 51°53' E 004°17'0 0.0
2014-Dec-10 01:31N 51°53' E 004°17'0 0.0
2014-Dec-10 00:31N 51°53' E 004°17'0 0.0
2014-Dec-09 23:31N 51°53' E 004°17'0 0.0
2014-Dec-09 22:31N 51°53' E 004°17'0 0.0
2014-Dec-09 21:28N 51°53' E 004°17'0 0.0
2014-Dec-09 20:31N 51°53' E 004°17'0 0.0
2014-Dec-09 19:31N 51°53' E 004°17'0 0.0
2014-Dec-09 18:31N 51°53' E 004°17'0 0.0
2014-Dec-09 17:31N 51°53' E 004°17'0 0.0
2014-Dec-09 16:23N 51°53' E 004°17'0 0.0
2014-Dec-09 15:31N 51°53' E 004°17'0 0.0
2014-Dec-09 14:33N 51°53' E 004°17'0 0.0
2014-Dec-09 13:25N 51°53' E 004°17'0 0.0
2014-Dec-09 12:25N 51°53' E 004°17'0 0.0
2014-Dec-09 11:29N 51°53' E 004°17'0 0.0
2014-Dec-09 10:31N 51°53' E 004°17'0 0.0
2014-Dec-09 09:31N 51°53' E 004°17'0 0.0
2014-Dec-09 08:31N 51°53' E 004°17'0 0.0
2014-Dec-09 07:31N 51°53' E 004°17'0 0.0
2014-Dec-09 06:31N 51°53' E 004°17'0 0.0
2014-Dec-09 05:33N 51°53' E 004°17'1 0.5
2014-Dec-09 04:34N 51°54' E 004°17'9 8.7
2014-Dec-09 03:34N 51°59' E 004°06'9 8.5
2014-Dec-09 02:33N 52°01' E 003°52'6 5.7
2014-Dec-09 01:33N 51°59' E 003°44'6 6.0
2014-Dec-09 00:32N 51°57' E 003°34'6 5.8
2014-Dec-08 23:30N 51°55' E 003°25'  

Dump ship's entire track history